createdAt,value
2022-08-08T00:08:12.885Z,1.70
2022-08-08T00:18:22.650Z,1.50
2022-08-08T00:28:35.110Z,1.40
2022-08-08T00:38:56.517Z,1.40
2022-08-08T00:49:35.478Z,1.55
2022-08-08T00:59:43.839Z,1.50
2022-08-08T01:10:16.476Z,1.50
2022-08-08T01:20:35.410Z,1.42
2022-08-08T01:30:53.928Z,1.30
2022-08-08T01:41:26.910Z,1.30
2022-08-08T01:52:57.413Z,1.38
2022-08-08T02:02:47.181Z,1.30
2022-08-08T02:12:59.880Z,1.13
2022-08-08T02:23:16.044Z,1.30
2022-08-08T02:34:08.239Z,1.15
2022-08-08T02:44:42.335Z,1.30
2022-08-08T02:54:54.732Z,1.30
2022-08-08T03:05:26.662Z,1.17
2022-08-08T03:16:37.286Z,1.25
2022-08-08T03:26:44.398Z,1.38
2022-08-08T03:36:49.110Z,1.10
2022-08-08T03:46:50.910Z,1.20
2022-08-08T03:56:57.464Z,1.20
2022-08-08T04:07:00.896Z,1.30
2022-08-08T04:17:22.210Z,1.20
2022-08-08T04:28:03.220Z,1.00
2022-08-08T04:37:54.408Z,1.20
2022-08-08T04:48:01.404Z,0.98
2022-08-08T04:58:11.047Z,1.17
2022-08-08T05:08:13.901Z,0.90
2022-08-08T05:18:17.249Z,0.95
2022-08-08T05:28:56.203Z,1.08
2022-08-08T05:38:47.894Z,1.00
2022-08-08T05:48:52.391Z,0.90
2022-08-08T05:59:04.963Z,1.25
2022-08-08T06:09:41.916Z,1.10
2022-08-08T06:19:35.300Z,0.90
2022-08-08T06:29:56.409Z,0.85
2022-08-08T06:40:07.227Z,0.90
2022-08-08T06:50:12.790Z,0.95
2022-08-08T07:00:31.817Z,1.00
2022-08-08T07:10:40.306Z,1.10
2022-08-08T07:20:51.414Z,1.00
2022-08-08T07:30:55.573Z,1.00
2022-08-08T07:40:59.041Z,0.70
2022-08-08T07:51:22.903Z,1.05
2022-08-08T08:01:30.591Z,0.95
2022-08-08T08:11:53.796Z,0.70
2022-08-08T08:22:02.503Z,0.75
2022-08-08T08:32:31.490Z,1.25
2022-08-08T08:42:36.544Z,0.95
2022-08-08T08:52:59.646Z,0.93
2022-08-08T09:03:06.713Z,0.75
2022-08-08T09:13:13.618Z,1.00
2022-08-08T09:23:25.501Z,0.73
2022-08-08T09:34:06.140Z,0.75
2022-08-08T09:44:05.743Z,1.08
2022-08-08T09:54:19.940Z,1.00
2022-08-08T10:04:42.063Z,0.70
2022-08-08T10:15:00.244Z,0.77
2022-08-08T10:25:05.988Z,0.80
2022-08-08T10:35:20.553Z,0.88
2022-08-08T10:45:56.386Z,0.93
2022-08-08T10:55:58.921Z,0.80
2022-08-08T11:06:01.889Z,0.68
2022-08-08T11:16:11.407Z,0.80
2022-08-08T11:26:27.985Z,0.80
2022-08-08T11:36:32.262Z,0.80
2022-08-08T11:46:37.926Z,0.90
2022-08-08T11:56:42.177Z,0.60
2022-08-08T12:06:44.761Z,0.70
2022-08-08T12:16:53.204Z,0.70
2022-08-08T12:26:54.877Z,0.77
2022-08-08T12:37:05.377Z,0.70
2022-08-08T12:47:13.009Z,0.60
2022-08-08T12:57:24.662Z,0.60
2022-08-08T13:08:04.300Z,0.50
2022-08-08T13:18:10.565Z,0.47
2022-08-08T13:28:16.550Z,0.60
2022-08-08T13:38:19.040Z,0.70
2022-08-08T13:48:25.993Z,0.50
2022-08-08T13:58:29.521Z,0.50
2022-08-08T14:08:34.781Z,0.60
2022-08-08T14:18:52.038Z,0.70
2022-08-08T14:28:57.172Z,0.65
2022-08-08T14:39:01.165Z,0.50
2022-08-08T14:49:20.073Z,0.60
2022-08-08T14:59:43.655Z,0.60
2022-08-08T15:09:47.982Z,0.75
2022-08-08T15:19:49.527Z,0.52
2022-08-08T15:29:51.063Z,0.52
2022-08-08T15:39:54.571Z,0.70
2022-08-08T15:49:56.345Z,0.65
2022-08-08T16:00:06.324Z,0.60
2022-08-08T16:13:03.453Z,0.70
2022-08-08T16:20:41.018Z,0.93
2022-08-08T16:30:43.710Z,1.00
2022-08-08T16:40:45.587Z,0.88
2022-08-08T16:50:47.190Z,0.95
2022-08-08T17:00:51.694Z,0.80
2022-08-08T17:10:58.897Z,0.80
2022-08-08T17:21:12.416Z,0.70
2022-08-08T17:31:43.651Z,0.85
2022-08-08T17:41:38.935Z,0.60
2022-08-08T17:51:45.937Z,0.90
2022-08-08T18:02:02.997Z,1.00
2022-08-08T18:12:10.081Z,1.25
2022-08-08T18:22:50.307Z,1.30
2022-08-08T18:32:36.149Z,1.10
2022-08-08T18:42:45.790Z,1.55
2022-08-08T18:52:51.871Z,1.00
2022-08-08T19:02:57.975Z,1.67
2022-08-08T19:13:10.650Z,1.08
2022-08-08T19:23:22.801Z,1.07
2022-08-08T19:33:26.064Z,0.95
2022-08-08T19:44:02.357Z,1.00
2022-08-08T19:54:06.733Z,1.05
2022-08-08T20:04:08.445Z,0.98
2022-08-08T20:14:32.804Z,0.80
2022-08-08T20:24:31.449Z,1.00
2022-08-08T20:34:33.205Z,0.85
2022-08-08T20:44:37.580Z,0.70
2022-08-08T20:54:39.420Z,0.68
2022-08-08T21:04:50.079Z,0.60
2022-08-08T21:14:51.945Z,0.90
2022-08-08T21:24:54.686Z,0.80
2022-08-08T21:34:56.924Z,0.80
2022-08-08T21:45:44.300Z,0.65
2022-08-08T21:56:19.472Z,0.73
2022-08-08T22:06:01.076Z,0.70
2022-08-08T22:16:03.853Z,0.85
2022-08-08T22:26:27.647Z,0.90
2022-08-08T22:36:32.340Z,0.70
2022-08-08T22:46:38.776Z,0.75
2022-08-08T22:56:41.310Z,0.90
2022-08-08T23:06:42.958Z,0.80
2022-08-08T23:16:49.691Z,0.70
2022-08-08T23:26:59.550Z,1.00
2022-08-08T23:37:02.618Z,0.70
2022-08-08T23:49:07.964Z,0.90
2022-08-08T23:57:38.696Z,0.88
